Time;durP1;ratioP1;P1;durP2;ratioP2;P2;SDS_P1;SDS_P2;PMS_P1;PMS_P2;Temp;Humidity;BMP_temperature;BMP_pressure;BME280_temperature;BME280_humidity;BME280_pressure;Samples;Min_cycle;Max_cycle;Signal;HPM_P1;HPM_P2
2022/07/24 00:01:23;;;;;;;;;20.33;20.33;;;;;22.98;55.48;101546.97;5016814;28;45304;-66
2022/07/24 00:03:49;;;;;;;;;19.67;19.67;;;;;23.09;55.58;101559.13;5031323;28;47856;-65
2022/07/24 00:06:14;;;;;;;;;21.00;19.00;;;;;23.14;55.56;101572.88;5031518;28;45933;-66
2022/07/24 00:08:40;;;;;;;;;20.00;19.00;;;;;23.13;55.46;101565.78;5031762;28;45258;-66
2022/07/24 00:11:05;;;;;;;;;18.67;17.67;;;;;23.01;55.56;101557.41;5031690;28;45670;-66
2022/07/24 00:13:31;;;;;;;;;22.00;20.00;;;;;22.60;55.93;101495.16;5016022;28;45778;-66
2022/07/24 00:15:56;;;;;;;;;20.00;19.33;;;;;22.59;55.83;101503.47;5031530;28;45454;-66
2022/07/24 00:18:22;;;;;;;;;21.33;20.33;;;;;22.50;55.97;101488.47;5016355;28;45280;-65
2022/07/24 00:20:47;;;;;;;;;21.67;20.00;;;;;23.00;56.07;101571.19;5016438;28;45476;-65
2022/07/24 00:23:12;;;;;;;;;22.33;22.33;;;;;22.91;55.97;101564.28;5014840;28;48969;-66
2022/07/24 00:25:38;;;;;;;;;21.67;20.67;;;;;22.93;56.09;101570.34;5016034;28;45256;-66
2022/07/24 00:28:03;;;;;;;;;17.33;16.33;;;;;22.56;56.70;101520.16;5016189;28;45292;-66
2022/07/24 00:30:29;;;;;;;;;21.67;19.00;;;;;22.72;57.07;101563.16;5016684;28;45242;-66
2022/07/24 00:32:54;;;;;;;;;23.33;22.33;;;;;22.56;57.16;101549.97;5019456;28;45924;-66
2022/07/24 00:35:20;;;;;;;;;23.33;21.00;;;;;22.42;57.40;101536.38;5001404;28;46094;-66
2022/07/24 00:37:46;;;;;;;;;21.67;20.33;;;;;22.51;57.48;101558.72;5019470;28;45171;-65
2022/07/24 00:40:12;;;;;;;;;21.00;20.67;;;;;22.31;57.96;101530.72;5019350;28;45474;-66
2022/07/24 00:42:38;;;;;;;;;22.33;20.67;;;;;22.40;57.86;101537.59;5033763;28;46597;-66
2022/07/24 00:45:04;;;;;;;;;21.67;18.67;;;;;22.38;57.99;101526.97;5017754;28;45289;-65
2022/07/24 00:47:29;;;;;;;;;25.00;21.67;;;;;22.08;57.74;101485.81;5019017;28;45450;-66
2022/07/24 00:49:55;;;;;;;;;19.33;19.33;;;;;22.34;57.83;101522.16;5019329;28;45210;-66
2022/07/24 00:52:20;;;;;;;;;18.00;18.00;;;;;22.37;57.82;101522.59;5019134;28;47418;-65
2022/07/24 00:54:46;;;;;;;;;22.67;21.00;;;;;22.39;57.73;101530.53;5018825;28;45522;-67
2022/07/24 00:57:11;;;;;;;;;21.33;20.33;;;;;22.32;57.78;101497.16;5034409;28;45282;-66
2022/07/24 00:59:37;;;;;;;;;23.67;20.00;;;;;22.39;58.02;101514.25;5019160;28;45564;-66
2022/07/24 01:02:02;;;;;;;;;25.00;23.67;;;;;22.36;57.77;101530.94;5018906;28;46407;-66
2022/07/24 01:04:28;;;;;;;;;25.67;22.00;;;;;22.31;58.10;101519.88;5018842;28;45380;-66
2022/07/24 01:06:53;;;;;;;;;23.33;21.33;;;;;22.29;58.29;101513.81;5018983;28;45669;-65
2022/07/24 01:09:19;;;;;;;;;22.33;20.00;;;;;22.31;57.99;101511.75;5019195;28;45237;-65
2022/07/24 01:11:45;;;;;;;;;19.00;19.00;;;;;22.23;58.04;101495.69;5018686;28;47222;-65
2022/07/24 01:14:13;;;;;;;;;18.00;16.67;;;;;22.30;57.64;101510.06;5018743;28;45292;-65
2022/07/24 01:16:39;;;;;;;;;20.33;20.33;;;;;21.83;57.09;101431.31;5019065;28;45371;-65
2022/07/24 01:19:04;;;;;;;;;21.00;18.67;;;;;22.17;57.14;101495.44;5018818;28;45300;-64
2022/07/24 01:21:29;;;;;;;;;19.00;19.00;;;;;22.37;57.20;101524.47;5018434;28;47158;-66
2022/07/24 01:23:55;;;;;;;;;20.67;19.00;;;;;22.32;56.73;101508.84;5017423;28;46171;-66
2022/07/24 01:26:20;;;;;;;;;20.00;17.67;;;;;22.30;57.05;101510.06;5018818;28;45474;-65
2022/07/24 01:28:45;;;;;;;;;15.33;15.00;;;;;22.43;56.64;101537.22;5017571;28;45397;-65
2022/07/24 01:31:11;;;;;;;;;16.33;16.33;;;;;22.31;56.87;101525.28;5018466;28;46030;-66
2022/07/24 01:33:36;;;;;;;;;15.67;15.67;;;;;22.27;56.96;101526.75;5033811;28;45430;-65
2022/07/24 01:36:02;;;;;;;;;18.33;18.33;;;;;21.69;56.74;101432.28;5018677;28;45489;-65
2022/07/24 01:38:27;;;;;;;;;17.67;17.67;;;;;21.75;56.91;101446.88;5018466;28;45593;-65
2022/07/24 01:40:53;;;;;;;;;20.67;19.67;;;;;22.28;57.34;101531.13;5017093;28;46284;-65
2022/07/24 01:43:18;;;;;;;;;18.00;17.00;;;;;22.20;57.52;101526.69;5017786;28;45486;-65
2022/07/24 01:45:44;;;;;;;;;19.67;17.67;;;;;22.14;57.44;101509.38;5018477;28;45280;-65
2022/07/24 01:48:10;;;;;;;;;15.67;15.67;;;;;22.26;57.16;101534.03;5018433;28;45415;-65
2022/07/24 01:50:35;;;;;;;;;19.67;17.00;;;;;22.30;56.61;101529.03;5033586;28;48215;-64
2022/07/24 01:53:01;;;;;;;;;19.67;16.33;;;;;22.28;57.11;101518.41;5018185;28;45186;-65
2022/07/24 01:55:29;;;;;;;;;18.67;15.67;;;;;22.36;56.98;101526.34;5033581;28;45515;-65
2022/07/24 01:57:54;;;;;;;;;15.33;15.33;;;;;22.34;56.90;101530.31;5018591;28;45319;-66
2022/07/24 02:00:20;;;;;;;;;14.00;14.00;;;;;22.33;56.91;101526.75;5017881;28;47502;-65
2022/07/24 02:02:45;;;;;;;;;21.00;18.00;;;;;22.28;56.86;101520.28;5018028;28;45226;-66
2022/07/24 02:05:12;;;;;;;;;20.67;16.33;;;;;22.32;57.25;101519.66;5018245;28;45414;-66
2022/07/24 02:07:42;;;;;;;;;19.67;17.33;;;;;22.32;57.10;101518.84;5018461;28;45533;-65
2022/07/24 02:10:08;;;;;;;;;16.67;16.33;;;;;22.27;56.96;101519.44;5017762;28;46215;-65
2022/07/24 02:12:34;;;;;;;;;19.00;18.67;;;;;22.26;56.71;101525.06;5017908;28;45267;-66
2022/07/24 02:14:59;;;;;;;;;19.67;17.67;;;;;22.23;57.01;101510.06;5017911;28;45254;-66
2022/07/24 02:17:24;;;;;;;;;19.33;18.00;;;;;21.89;57.15;101461.31;5018092;28;45531;-65
2022/07/24 02:19:50;;;;;;;;;17.00;16.00;;;;;22.16;57.05;101498.34;5033015;28;45689;-65
2022/07/24 02:22:15;;;;;;;;;20.67;17.33;;;;;22.21;56.98;101513.97;5016203;28;45615;-66
2022/07/24 02:24:41;;;;;;;;;18.67;16.00;;;;;22.21;57.00;101513.97;5017865;28;45641;-64
2022/07/24 02:27:06;;;;;;;;;16.67;15.00;;;;;22.16;56.97;101493.75;5017915;28;45475;-64
2022/07/24 02:29:31;;;;;;;;;18.67;17.00;;;;;22.26;56.94;101508.81;5017497;28;45746;-65
2022/07/24 02:31:57;;;;;;;;;19.67;16.33;;;;;21.48;56.76;101395.34;5017630;28;45309;-65
2022/07/24 02:34:22;;;;;;;;;16.33;16.33;;;;;22.19;56.44;101492.50;5017546;28;45430;-66
2022/07/24 02:36:48;;;;;;;;;19.00;16.33;;;;;22.13;56.51;101499.59;5017369;28;45290;-64
2022/07/24 02:39:13;;;;;;;;;16.33;15.33;;;;;22.02;56.46;101485.72;5017198;28;46760;-65
2022/07/24 02:41:38;;;;;;;;;12.33;11.67;;;;;22.03;56.24;101482.84;5017248;28;45480;-65
2022/07/24 02:44:04;;;;;;;;;16.33;14.67;;;;;22.02;56.00;101492.00;5017565;28;45529;-65
2022/07/24 02:46:29;;;;;;;;;15.67;14.67;;;;;22.01;56.15;101484.06;5017809;28;45417;-66
2022/07/24 02:48:54;;;;;;;;;13.00;12.67;;;;;21.88;55.95;101468.63;5017294;28;46082;-65
2022/07/24 02:51:20;;;;;;;;;20.67;16.33;;;;;21.99;55.95;101470.72;5017166;28;45431;-65
2022/07/24 02:53:45;;;;;;;;;15.67;15.33;;;;;21.97;55.94;101467.41;5015351;28;45375;-65
2022/07/24 02:56:10;;;;;;;;;15.33;15.33;;;;;22.03;56.12;101461.19;5017089;28;45277;-65
2022/07/24 02:58:36;;;;;;;;;15.67;15.67;;;;;21.68;55.90;101402.72;5017193;28;45390;-64
2022/07/24 03:01:01;;;;;;;;;15.00;15.00;;;;;22.11;56.50;101474.56;5015859;28;45269;-67
2022/07/24 03:03:27;;;;;;;;;12.67;12.33;;;;;22.10;56.15;101472.91;5017236;28;45500;-65
2022/07/24 03:05:52;;;;;;;;;16.33;14.00;;;;;22.01;56.68;101455.13;5017371;28;45252;-65
2022/07/24 03:08:18;;;;;;;;;17.67;16.33;;;;;22.07;56.29;101465.19;5017085;28;45329;-65
2022/07/24 03:10:43;;;;;;;;;15.67;14.33;;;;;22.04;56.44;101457.47;5016953;28;45246;-65
2022/07/24 03:13:08;;;;;;;;;20.33;16.33;;;;;21.93;56.38;101441.75;5017207;28;45265;-65
2022/07/24 03:15:34;;;;;;;;;21.00;17.33;;;;;21.95;56.62;101452.38;5017377;28;45389;-65
2022/07/24 03:17:59;;;;;;;;;18.33;18.33;;;;;21.83;57.29;101441.31;5016972;28;45711;-65
2022/07/24 03:20:27;;;;;;;;;19.67;16.33;;;;;21.90;57.12;101465.69;5016553;28;45327;-66
2022/07/24 03:22:56;;;;;;;;;17.33;15.67;;;;;21.73;57.41;101432.72;5017178;28;45526;-65
2022/07/24 03:25:22;;;;;;;;;16.00;15.67;;;;;21.90;57.20;101457.59;5032468;28;45519;-65
2022/07/24 03:27:48;;;;;;;;;15.00;15.00;;;;;21.86;57.37;101446.31;5015283;28;46925;-66
2022/07/24 03:30:14;;;;;;;;;16.33;16.33;;;;;21.97;57.13;101461.16;5016772;28;45590;-65
2022/07/24 03:32:40;;;;;;;;;17.33;16.33;;;;;22.00;57.30;101458.88;5016990;28;45179;-66
2022/07/24 03:35:06;;;;;;;;;19.67;17.67;;;;;21.91;57.13;101440.31;5016762;28;45350;-66
2022/07/24 03:37:32;;;;;;;;;18.67;18.67;;;;;21.65;57.25;101408.53;5016475;28;46622;-65
2022/07/24 03:39:57;;;;;;;;;21.67;19.33;;;;;21.96;57.48;101464.88;5016480;28;45407;-65
2022/07/24 03:42:23;;;;;;;;;22.67;20.67;;;;;21.93;57.26;101458.00;5016945;28;45320;-66
2022/07/24 03:44:48;;;;;;;;;15.33;15.33;;;;;21.90;57.26;101454.88;5017048;28;45406;-66
2022/07/24 03:47:14;;;;;;;;;18.33;16.33;;;;;21.83;57.43;101455.69;5016255;28;46726;-66
2022/07/24 03:49:39;;;;;;;;;14.67;14.67;;;;;21.82;57.34;101447.75;5016594;28;45381;-65
2022/07/24 03:52:05;;;;;;;;;13.00;11.67;;;;;21.70;57.53;101428.53;5016600;28;45684;-65
2022/07/24 03:54:30;;;;;;;;;20.00;16.00;;;;;21.94;56.97;101464.25;5016903;28;45377;-65
2022/07/24 03:56:55;;;;;;;;;16.67;15.00;;;;;21.36;57.10;101386.09;5015061;28;48880;-66
2022/07/24 03:59:21;;;;;;;;;18.00;15.33;;;;;21.86;57.23;101470.69;5016380;28;45339;-65
2022/07/24 04:01:47;;;;;;;;;17.67;14.67;;;;;21.28;56.77;101374.63;5016368;28;45526;-65
2022/07/24 04:04:12;;;;;;;;;16.00;15.00;;;;;21.58;56.95;101418.47;5031937;28;45582;-64
2022/07/24 04:06:38;;;;;;;;;15.00;15.00;;;;;21.78;56.99;101454.59;5033493;28;47948;-66
2022/07/24 04:09:05;;;;;;;;;17.67;16.33;;;;;21.83;57.50;101461.09;5019916;28;45162;-66
2022/07/24 04:11:30;;;;;;;;;15.00;14.00;;;;;21.81;57.16;101462.31;5019982;28;45351;-65
2022/07/24 04:13:56;;;;;;;;;18.33;17.00;;;;;21.32;57.67;101397.50;5019990;28;45360;-65
2022/07/24 04:16:21;;;;;;;;;18.00;16.00;;;;;21.76;57.83;101470.19;5019535;28;45652;-65
2022/07/24 04:18:47;;;;;;;;;23.00;19.00;;;;;21.71;58.06;101467.25;5034843;28;45475;-65
2022/07/24 04:21:12;;;;;;;;;20.67;19.33;;;;;21.33;58.51;101391.06;5019862;28;45408;-65
2022/07/24 04:23:38;;;;;;;;;14.67;14.00;;;;;21.84;58.66;101473.59;5019781;28;45605;-65
2022/07/24 04:26:03;;;;;;;;;19.33;18.33;;;;;21.88;58.34;101474.03;5019438;28;47348;-66
2022/07/24 04:28:29;;;;;;;;;18.67;18.67;;;;;21.75;58.29;101444.19;5019556;28;45242;-66
2022/07/24 04:30:55;;;;;;;;;19.00;18.67;;;;;21.53;58.16;101400.97;5019896;28;45507;-65
2022/07/24 04:33:20;;;;;;;;;20.00;18.33;;;;;21.98;57.34;101468.22;5019798;28;45547;-65
2022/07/24 04:35:46;;;;;;;;;20.67;20.67;;;;;21.98;57.32;101474.47;5018148;28;46456;-65
2022/07/24 04:38:11;;;;;;;;;19.33;16.00;;;;;21.87;57.08;101453.41;5019461;28;45460;-65
2022/07/24 04:40:36;;;;;;;;;24.33;21.00;;;;;21.96;57.01;101475.72;5019292;28;45314;-65
2022/07/24 04:43:02;;;;;;;;;19.67;18.67;;;;;21.87;57.42;101458.81;5019628;28;45469;-67
2022/07/24 04:45:27;;;;;;;;;13.33;12.00;;;;;21.97;57.42;101475.50;5019389;28;45709;-65
2022/07/24 04:47:52;;;;;;;;;17.33;16.67;;;;;21.89;57.82;101456.75;5034201;28;45231;-67
2022/07/24 04:50:18;;;;;;;;;20.00;19.00;;;;;21.97;57.43;101472.81;5034384;28;45474;-65
2022/07/24 04:52:43;;;;;;;;;18.67;16.00;;;;;22.04;56.57;101468.31;5019195;28;45208;-65
2022/07/24 04:55:10;;;;;;;;;13.33;13.33;;;;;22.00;56.95;101461.56;5018652;28;46681;-65
2022/07/24 04:57:35;;;;;;;;;21.33;16.33;;;;;21.38;56.73;101356.97;5018584;28;45297;-65
2022/07/24 05:00:02;;;;;;;;;17.00;15.67;;;;;22.04;56.61;101462.03;5017155;28;45501;-67
2022/07/24 05:02:28;;;;;;;;;19.33;17.00;;;;;22.05;56.55;101461.03;5018772;28;45470;-66
2022/07/24 05:04:53;;;;;;;;;18.33;17.67;;;;;21.89;57.06;101437.78;5017836;28;47566;-65
2022/07/24 05:07:18;;;;;;;;;16.67;16.67;;;;;21.97;56.64;101437.59;5018112;28;45505;-65
2022/07/24 05:09:44;;;;;;;;;17.33;15.33;;;;;22.11;57.26;101461.03;5018829;28;45472;-65
2022/07/24 05:12:09;;;;;;;;;21.33;16.00;;;;;22.11;57.08;101463.75;5019052;28;45231;-65
2022/07/24 05:14:34;;;;;;;;;21.33;18.00;;;;;21.97;56.84;101432.19;5018474;28;45749;-65
2022/07/24 05:17:00;;;;;;;;;22.67;19.33;;;;;22.07;56.55;101461.66;5017654;28;45312;-66
2022/07/24 05:19:25;;;;;;;;;19.00;18.67;;;;;22.11;56.67;101469.16;5018336;28;45862;-66
2022/07/24 05:21:51;;;;;;;;;21.00;18.00;;;;;22.11;56.33;101474.56;5017317;28;45284;-65
2022/07/24 05:24:16;;;;;;;;;19.67;16.33;;;;;21.55;56.10;101388.06;5017923;28;46165;-66
2022/07/24 05:26:42;;;;;;;;;22.00;19.67;;;;;22.12;55.80;101475.41;5018331;28;45186;-66
2022/07/24 05:29:10;;;;;;;;;20.00;18.00;;;;;22.14;54.98;101463.34;5018240;28;45169;-66
2022/07/24 05:31:35;;;;;;;;;16.00;16.00;;;;;22.02;55.06;101448.66;5033698;28;45282;-65
2022/07/24 05:34:02;;;;;;;;;18.67;14.67;;;;;22.08;54.62;101464.16;5018065;28;46506;-65
2022/07/24 05:36:28;;;;;;;;;14.33;11.00;;;;;22.07;54.79;101462.47;5018055;28;45320;-66
2022/07/24 05:38:53;;;;;;;;;14.33;14.33;;;;;22.11;54.90;101466.47;5017874;28;45508;-65
2022/07/24 05:41:18;;;;;;;;;16.00;16.00;;;;;22.16;54.89;101466.69;5016534;28;45639;-66
2022/07/24 05:43:44;;;;;;;;;18.33;17.00;;;;;22.20;54.89;101460.84;5017715;28;46104;-66
2022/07/24 05:46:09;;;;;;;;;17.33;15.33;;;;;22.28;55.22;101471.53;5016426;28;45368;-66
2022/07/24 05:48:35;;;;;;;;;19.33;14.33;;;;;22.32;54.69;101465.47;5017568;28;45443;-66
2022/07/24 05:51:00;;;;;;;;;20.33;19.33;;;;;22.26;54.72;101454.63;5033502;28;45471;-65
2022/07/24 05:53:25;;;;;;;;;16.33;14.67;;;;;22.11;55.01;101411.47;5017629;28;46368;-66
2022/07/24 05:55:51;;;;;;;;;19.00;16.50;;;;;22.52;54.84;101468.25;5016589;28;46213;-65
2022/07/24 05:58:17;;;;;;;;;19.33;18.67;;;;;22.57;54.72;101460.34;5017843;28;45306;-65
2022/07/24 06:00:43;;;;;;;;;16.33;16.33;;;;;22.55;54.76;101454.28;5017897;28;45439;-66
2022/07/24 06:03:09;;;;;;;;;19.67;18.67;;;;;22.64;55.04;101466.63;5017442;28;46007;-66
2022/07/24 06:05:34;;;;;;;;;16.00;14.33;;;;;22.72;54.37;101466.41;5017667;28;45379;-66
2022/07/24 06:08:00;;;;;;;;;20.00;18.00;;;;;22.76;54.77;101462.25;5017855;28;45181;-65
2022/07/24 06:10:25;;;;;;;;;24.50;21.50;;;;;22.75;54.35;101459.75;5018100;28;45158;-65
2022/07/24 06:12:51;;;;;;;;;19.67;17.33;;;;;22.55;54.96;101416.34;5017679;28;45588;-67
2022/07/24 06:15:16;;;;;;;;;16.33;15.33;;;;;22.84;54.68;101461.25;5017422;28;45309;-65
2022/07/24 06:17:42;;;;;;;;;14.33;14.33;;;;;22.83;54.64;101459.59;5016311;28;45454;-66
2022/07/24 06:20:08;;;;;;;;;16.00;15.33;;;;;23.21;54.37;101456.22;5017635;28;45328;-66
2022/07/24 06:22:34;;;;;;;;;17.33;17.33;;;;;23.95;52.64;101448.56;5032622;28;46529;-66
2022/07/24 06:24:59;;;;;;;;;16.00;16.00;;;;;24.73;50.45;101442.09;5017460;28;45408;-66
2022/07/24 06:27:24;;;;;;;;;16.67;15.00;;;;;25.45;48.61;101436.06;5017632;28;45245;-66
2022/07/24 06:29:50;;;;;;;;;21.33;18.67;;;;;26.26;46.99;101444.97;5017224;28;45455;-66
2022/07/24 06:32:15;;;;;;;;;17.33;16.00;;;;;27.03;45.28;101436.91;5017141;28;45891;-68
2022/07/24 06:34:40;;;;;;;;;19.00;14.67;;;;;27.79;43.46;101430.47;5017268;28;45469;-65
2022/07/24 06:37:06;;;;;;;;;19.33;16.33;;;;;28.57;42.50;101438.03;5017241;28;45240;-65
2022/07/24 06:39:31;;;;;;;;;21.00;18.67;;;;;28.81;40.29;101394.09;5017382;28;45191;-66
2022/07/24 06:41:57;;;;;;;;;22.00;18.67;;;;;29.73;39.44;101435.47;5015575;28;47556;-66
2022/07/24 06:44:22;;;;;;;;;17.00;16.33;;;;;30.42;38.35;101435.72;5016727;28;45254;-66
2022/07/24 06:46:48;;;;;;;;;16.67;16.33;;;;;30.92;36.70;101440.06;5017029;28;45300;-65
2022/07/24 06:49:13;;;;;;;;;19.33;18.33;;;;;31.08;36.12;101410.81;5017082;28;45331;-67
2022/07/24 06:51:39;;;;;;;;;20.00;19.00;;;;;31.42;36.12;101433.28;5032413;28;47695;-66
2022/07/24 06:54:04;;;;;;;;;18.67;18.67;;;;;31.63;35.34;101424.03;5032292;28;45545;-66
2022/07/24 06:56:30;;;;;;;;;18.67;18.67;;;;;31.93;34.75;101436.31;5016850;28;45407;-66
2022/07/24 06:58:56;;;;;;;;;15.33;14.33;;;;;32.24;34.47;101438.06;5015647;28;45591;-66
2022/07/24 07:01:25;;;;;;;;;17.67;16.00;;;;;32.71;33.97;101436.22;5016283;28;45743;-66
2022/07/24 07:03:51;;;;;;;;;19.33;17.00;;;;;33.09;32.61;101430.16;5030923;28;45719;-66
2022/07/24 07:06:16;;;;;;;;;19.33;18.00;;;;;33.07;32.86;101362.66;5015983;28;45458;-66
2022/07/24 07:08:41;;;;;;;;;15.67;14.33;;;;;33.88;32.10;101411.22;5016437;28;45229;-66
2022/07/24 07:11:07;;;;;;;;;19.67;18.00;;;;;34.32;30.98;101417.56;5016503;28;45602;-66
2022/07/24 07:13:32;;;;;;;;;16.33;16.33;;;;;34.86;30.90;101426.88;5016090;28;45411;-66
2022/07/24 07:15:58;;;;;;;;;15.00;15.00;;;;;35.09;30.73;101381.88;5016549;28;45234;-66
2022/07/24 07:18:23;;;;;;;;;18.00;17.00;;;;;35.74;29.29;101425.66;5016765;28;45213;-66
2022/07/24 07:20:53;;;;;;;;;18.00;18.00;;;;;35.99;29.29;101424.50;5015984;28;45556;-66
2022/07/24 07:23:18;;;;;;;;;17.67;17.67;;;;;36.01;27.40;101369.66;5016192;28;45497;-65
2022/07/24 07:25:44;;;;;;;;;19.00;19.00;;;;;36.50;27.70;101427.38;5016254;28;45320;-66
2022/07/24 07:28:09;;;;;;;;;17.67;16.33;;;;;36.89;27.24;101437.28;5016291;28;45334;-66
2022/07/24 07:30:34;;;;;;;;;19.33;18.00;;;;;36.92;27.33;101418.09;5015980;28;45816;-67
2022/07/24 07:33:00;;;;;;;;;21.00;18.00;;;;;36.92;26.63;101387.59;5031206;28;45348;-66
2022/07/24 07:35:25;;;;;;;;;19.67;17.67;;;;;37.35;27.09;101426.19;5014762;28;45441;-67
2022/07/24 07:37:51;;;;;;;;;21.00;20.33;;;;;37.56;26.45;101432.97;5014974;28;45528;-66
2022/07/24 07:40:16;;;;;;;;;19.00;19.00;;;;;37.35;26.03;101385.41;5014922;28;47801;-66
2022/07/24 07:42:41;;;;;;;;;18.00;18.00;;;;;37.72;26.09;101414.06;5019660;28;45267;-67
2022/07/24 07:45:07;;;;;;;;;17.67;16.67;;;;;37.89;25.59;101430.91;5018306;28;45339;-66
2022/07/24 07:47:36;;;;;;;;;18.33;18.33;;;;;37.94;25.53;101410.53;5018087;28;45634;-67
2022/07/24 07:50:02;;;;;;;;;20.33;19.67;;;;;38.24;25.39;101418.16;5019424;28;46376;-66
2022/07/24 07:52:27;;;;;;;;;17.33;15.33;;;;;38.28;25.73;101410.88;5019812;28;45303;-67
2022/07/24 07:54:53;;;;;;;;;17.00;17.00;;;;;38.62;25.45;101415.03;5035047;28;45377;-66
2022/07/24 07:57:18;;;;;;;;;20.33;20.33;;;;;38.91;24.95;101412.63;5020041;28;45423;-66
2022/07/24 07:59:43;;;;;;;;;17.67;16.67;;;;;39.18;24.75;101406.06;5017999;28;46999;-68
2022/07/24 08:02:09;;;;;;;;;16.33;16.33;;;;;39.49;24.29;101392.13;5019388;28;45282;-66
2022/07/24 08:04:35;;;;;;;;;19.33;18.00;;;;;39.56;24.27;101349.09;5019548;28;45402;-67
2022/07/24 08:07:00;;;;;;;;;17.00;16.67;;;;;39.96;23.21;101399.94;5035178;28;45312;-65
2022/07/24 08:09:25;;;;;;;;;18.33;17.67;;;;;39.99;23.72;101394.53;5018135;28;48075;-68
2022/07/24 08:11:51;;;;;;;;;19.67;18.00;;;;;39.94;23.47;101397.47;5019432;28;45466;-66
2022/07/24 08:14:16;;;;;;;;;20.33;20.00;;;;;40.22;22.83;101394.38;5019459;28;45369;-66
2022/07/24 08:16:41;;;;;;;;;17.33;16.67;;;;;40.28;23.03;101385.53;5019563;28;45158;-67
2022/07/24 08:19:07;;;;;;;;;17.67;17.00;;;;;40.20;23.42;101366.84;5019010;28;45712;-67
2022/07/24 08:21:32;;;;;;;;;19.67;18.33;;;;;40.68;22.19;101377.78;5019410;28;45246;-67
2022/07/24 08:23:58;;;;;;;;;16.67;16.33;;;;;41.03;22.02;101386.84;5019297;28;45280;-67
2022/07/24 08:26:24;;;;;;;;;16.67;16.67;;;;;40.88;21.56;101372.66;5019648;28;45530;-67
2022/07/24 08:28:49;;;;;;;;;17.00;16.33;;;;;40.79;22.29;101383.81;5018973;28;46374;-67
2022/07/24 08:31:14;;;;;;;;;17.00;17.00;;;;;40.98;21.80;101384.25;5019074;28;45334;-67
2022/07/24 08:33:40;;;;;;;;;18.33;18.33;;;;;40.84;21.54;101336.25;5019240;28;45196;-67
2022/07/24 08:36:06;;;;;;;;;16.00;14.67;;;;;41.14;21.41;101386.50;5018772;28;45461;-65
2022/07/24 08:38:31;;;;;;;;;16.00;16.00;;;;;41.33;21.29;101393.31;5018603;28;46963;-67
2022/07/24 08:40:56;;;;;;;;;19.00;18.00;;;;;41.38;20.78;101377.53;5018447;28;45482;-67
2022/07/24 08:43:22;;;;;;;;;15.33;14.33;;;;;41.61;20.75;101390.03;5018739;28;45623;-66
2022/07/24 08:45:52;;;;;;;;;14.00;14.00;;;;;41.77;20.74;101367.94;5018899;28;45296;-67
2022/07/24 08:48:20;;;;;;;;;14.33;13.33;;;;;42.13;19.65;101376.56;5018221;28;46782;-68
2022/07/24 08:50:46;;;;;;;;;13.67;13.67;;;;;41.97;19.86;101386.69;5018315;28;45468;-67
2022/07/24 08:53:12;;;;;;;;;16.33;15.33;;;;;42.10;19.77;101380.03;5018491;28;45441;-67
2022/07/24 08:55:37;;;;;;;;;16.33;14.00;;;;;42.30;19.12;101370.00;5019168;28;45242;-67
2022/07/24 08:58:03;;;;;;;;;12.67;11.00;;;;;42.14;19.42;101363.41;5018692;28;46128;-68
2022/07/24 09:00:30;;;;;;;;;13.67;13.67;;;;;42.39;18.82;101353.94;5017262;28;45468;-67
2022/07/24 09:02:56;;;;;;;;;12.00;10.67;;;;;42.35;18.39;101341.81;5018666;28;45506;-68
2022/07/24 09:05:21;;;;;;;;;13.33;13.00;;;;;42.63;18.13;101355.19;5018897;28;45553;-66
2022/07/24 09:07:47;;;;;;;;;12.33;12.33;;;;;42.54;18.37;101318.94;5017212;28;48412;-67
2022/07/24 09:10:18;;;;;;;;;15.00;14.00;;;;;42.82;18.12;101349.84;5033331;28;45532;-67
2022/07/24 09:12:46;;;;;;;;;13.33;13.33;;;;;43.06;17.99;101333.13;5018484;28;45499;-67
2022/07/24 09:15:17;;;;;;;;;12.67;11.00;;;;;43.27;17.32;101329.38;5017065;28;45503;-67
2022/07/24 09:17:49;;;;;;;;;12.67;11.00;;;;;43.44;17.41;101347.91;5016673;28;47479;-66
2022/07/24 09:20:14;;;;;;;;;12.33;11.33;;;;;44.15;16.68;101334.09;5017795;28;45456;-67
2022/07/24 09:22:41;;;;;;;;;11.33;11.33;;;;;44.78;16.29;101331.38;5018033;28;45620;-66
2022/07/24 09:25:22;;;;;;;;;11.67;11.67;;;;;45.40;15.65;101326.91;5033383;28;45515;-67
2022/07/24 09:28:03;;;;;;;;;12.67;12.67;;;;;46.42;14.84;101321.00;5018040;28;45653;-67
2022/07/24 09:30:38;;;;;;;;;13.67;13.67;;;;;47.50;13.90;101328.03;5018024;28;45537;-67
2022/07/24 09:33:13;;;;;;;;;10.00;10.00;;;;;48.30;13.28;101328.63;5018161;28;45299;-67
2022/07/24 09:35:45;;;;;;;;;11.67;10.67;;;;;48.73;12.97;101317.75;5018094;28;45399;-68
2022/07/24 09:38:19;;;;;;;;;9.67;9.67;;;;;49.68;11.88;101311.13;5033087;28;49701;-68
2022/07/24 09:40:55;;;;;;;;;9.00;9.00;;;;;50.32;11.24;101314.13;5017778;28;45452;-67
2022/07/24 09:43:26;;;;;;;;;11.67;8.00;;;;;50.99;11.10;101287.84;5016681;28;45372;-67
2022/07/24 09:46:02;;;;;;;;;9.00;9.00;;;;;51.56;9.97;101306.75;5018167;28;45194;-67
2022/07/24 09:48:37;;;;;;;;;7.33;7.33;;;;;52.00;9.75;101297.59;5032843;28;48813;-67
2022/07/24 09:51:09;;;;;;;;;9.00;7.33;;;;;52.90;9.73;101301.38;5016235;28;45244;-66
2022/07/24 09:53:36;;;;;;;;;7.67;7.67;;;;;53.40;8.86;101289.47;5017862;28;45319;-67
2022/07/24 09:56:08;;;;;;;;;8.00;8.00;;;;;53.43;8.93;101282.94;5017002;28;45495;-65
2022/07/24 09:58:39;;;;;;;;;8.33;8.33;;;;;52.53;9.72;101285.09;5017367;28;45851;-68
2022/07/24 10:01:07;;;;;;;;;6.33;6.33;;;;;52.39;9.33;101288.84;5016981;28;45250;-68
2022/07/24 10:03:35;;;;;;;;;8.00;8.00;;;;;52.05;9.24;101285.84;5017239;28;45294;-66
2022/07/24 10:06:04;;;;;;;;;7.67;7.67;;;;;51.84;9.14;101285.94;5033206;28;45294;-68
2022/07/24 10:08:32;;;;;;;;;7.67;7.67;;;;;51.05;9.56;101251.44;5016404;28;47788;-67
2022/07/24 10:10:58;;;;;;;;;7.00;7.00;;;;;50.26;10.67;101267.63;5017644;28;45486;-67
2022/07/24 10:13:27;;;;;;;;;7.33;6.33;;;;;48.91;11.41;101256.59;5015951;28;45331;-67
2022/07/24 10:16:12;;;;;;;;;8.00;8.00;;;;;47.52;12.58;101277.75;5017357;28;45627;-67
2022/07/24 10:18:47;;;;;;;;;8.00;7.00;;;;;45.69;12.90;101260.16;5015420;28;47591;-66
2022/07/24 10:21:19;;;;;;;;;8.00;7.67;;;;;44.36;13.64;101265.75;5016952;28;45252;-66
2022/07/24 10:23:47;;;;;;;;;9.33;9.33;;;;;42.76;15.47;101258.97;5017566;28;45315;-67
2022/07/24 10:26:22;;;;;;;;;9.67;9.67;;;;;41.62;16.12;101258.47;5016258;28;45258;-66
2022/07/24 10:28:54;;;;;;;;;10.00;10.00;;;;;40.54;17.24;101256.50;5017261;28;47047;-66
2022/07/24 10:31:19;;;;;;;;;9.67;8.67;;;;;39.94;18.24;101268.53;5017244;28;45453;-66
2022/07/24 10:33:53;;;;;;;;;9.00;9.00;;;;;38.87;18.40;101194.78;5017496;28;45474;-67
2022/07/24 10:36:29;;;;;;;;;8.67;8.67;;;;;38.84;19.14;101256.56;5017631;28;45507;-68
2022/07/24 10:39:09;;;;;;;;;9.33;7.33;;;;;37.61;20.30;101147.06;5015577;28;47132;-67
2022/07/24 10:41:34;;;;;;;;;8.33;8.33;;;;;37.43;20.64;101245.16;5031604;28;45503;-67
2022/07/24 10:44:17;;;;;;;;;8.33;8.33;;;;;37.05;21.36;101250.97;5017257;28;45193;-67
2022/07/24 10:47:01;;;;;;;;;7.00;7.00;;;;;36.56;21.13;101266.31;5017274;28;45223;-66
2022/07/24 10:49:38;;;;;;;;;8.67;8.67;;;;;36.25;20.96;101259.69;5017055;28;45930;-67
2022/07/24 10:52:04;;;;;;;;;7.00;7.00;;;;;35.91;21.15;101224.00;5015537;28;45681;-68
2022/07/24 10:54:29;;;;;;;;;8.33;7.33;;;;;35.83;22.01;101241.22;5016878;28;45557;-67
2022/07/24 10:56:55;;;;;;;;;9.00;9.00;;;;;35.47;22.66;101233.50;5017344;28;45138;-65
2022/07/24 10:59:46;;;;;;;;;9.00;9.00;;;;;35.21;22.80;101230.22;5031808;28;47256;-67
2022/07/24 11:02:26;;;;;;;;;12.00;9.00;;;;;34.91;23.52;101219.59;5014514;28;45679;-68
2022/07/24 11:05:27;;;;;;;;;9.00;8.33;;;;;34.66;23.38;101228.97;5016400;28;45203;-68
2022/07/24 11:08:22;;;;;;;;;7.67;7.67;;;;;34.20;23.14;101223.06;5016959;28;45156;-66
2022/07/24 11:10:52;;;;;;;;;8.67;7.00;;;;;33.97;23.69;101227.41;5015055;28;47361;-67